sensor_id;sensor_type;location;lat;lon;timestamp;temperature;humidity
26103;DHT22;69760;49.380;8.998;2023-09-07T00:01:18;20.50;89.30
26103;DHT22;69760;49.380;8.998;2023-09-07T00:03:43;20.60;89.40
26103;DHT22;69760;49.380;8.998;2023-09-07T00:06:09;20.50;89.50
26103;DHT22;69760;49.380;8.998;2023-09-07T00:08:35;20.50;89.20
26103;DHT22;69760;49.380;8.998;2023-09-07T00:11:06;20.50;89.20
26103;DHT22;69760;49.380;8.998;2023-09-07T00:13:33;20.50;89.30
26103;DHT22;69760;49.380;8.998;2023-09-07T00:16:00;20.50;89.70
26103;DHT22;69760;49.380;8.998;2023-09-07T00:18:29;20.50;90.20
26103;DHT22;69760;49.380;8.998;2023-09-07T00:20:54;20.40;90.50
26103;DHT22;69760;49.380;8.998;2023-09-07T00:23:20;20.40;90.60
26103;DHT22;69760;49.380;8.998;2023-09-07T00:25:46;20.20;90.00
26103;DHT22;69760;49.380;8.998;2023-09-07T00:28:12;20.20;90.90
26103;DHT22;69760;49.380;8.998;2023-09-07T00:30:37;20.10;90.90
26103;DHT22;69760;49.380;8.998;2023-09-07T00:33:03;20.10;90.90
26103;DHT22;69760;49.380;8.998;2023-09-07T00:35:29;20.00;91.00
26103;DHT22;69760;49.380;8.998;2023-09-07T00:37:55;20.00;90.80
26103;DHT22;69760;49.380;8.998;2023-09-07T00:40:21;20.00;90.70
26103;DHT22;69760;49.380;8.998;2023-09-07T00:42:47;20.00;91.00
26103;DHT22;69760;49.380;8.998;2023-09-07T00:45:13;20.00;91.10
26103;DHT22;69760;49.380;8.998;2023-09-07T00:47:39;20.10;90.70
26103;DHT22;69760;49.380;8.998;2023-09-07T00:50:06;20.10;90.70
26103;DHT22;69760;49.380;8.998;2023-09-07T00:52:32;20.20;90.80
26103;DHT22;69760;49.380;8.998;2023-09-07T00:55:01;20.20;90.80
26103;DHT22;69760;49.380;8.998;2023-09-07T00:57:27;20.20;90.50
26103;DHT22;69760;49.380;8.998;2023-09-07T00:59:52;20.30;90.90
26103;DHT22;69760;49.380;8.998;2023-09-07T01:02:19;20.20;90.70
26103;DHT22;69760;49.380;8.998;2023-09-07T01:04:44;20.20;90.90
26103;DHT22;69760;49.380;8.998;2023-09-07T01:07:19;20.20;91.20
26103;DHT22;69760;49.380;8.998;2023-09-07T01:09:49;20.20;91.00
26103;DHT22;69760;49.380;8.998;2023-09-07T01:12:16;20.20;90.90
26103;DHT22;69760;49.380;8.998;2023-09-07T01:14:42;20.20;91.20
26103;DHT22;69760;49.380;8.998;2023-09-07T01:17:08;20.20;90.90
26103;DHT22;69760;49.380;8.998;2023-09-07T01:19:34;20.10;91.40
26103;DHT22;69760;49.380;8.998;2023-09-07T01:22:00;20.10;91.60
26103;DHT22;69760;49.380;8.998;2023-09-07T01:24:26;20.10;91.80
26103;DHT22;69760;49.380;8.998;2023-09-07T01:26:56;20.00;91.70
26103;DHT22;69760;49.380;8.998;2023-09-07T01:29:22;20.00;91.60
26103;DHT22;69760;49.380;8.998;2023-09-07T01:31:48;20.00;91.60
26103;DHT22;69760;49.380;8.998;2023-09-07T01:34:13;19.90;91.70
26103;DHT22;69760;49.380;8.998;2023-09-07T01:36:40;19.90;91.70
26103;DHT22;69760;49.380;8.998;2023-09-07T01:39:06;19.90;92.00
26103;DHT22;69760;49.380;8.998;2023-09-07T01:41:31;19.90;92.60
26103;DHT22;69760;49.380;8.998;2023-09-07T01:43:57;19.90;92.30
26103;DHT22;69760;49.380;8.998;2023-09-07T01:46:22;19.80;92.30
26103;DHT22;69760;49.380;8.998;2023-09-07T01:48:48;19.80;92.50
26103;DHT22;69760;49.380;8.998;2023-09-07T01:51:13;19.80;92.50
26103;DHT22;69760;49.380;8.998;2023-09-07T01:53:39;19.80;92.50
26103;DHT22;69760;49.380;8.998;2023-09-07T02:02:06;19.80;93.10
26103;DHT22;69760;49.380;8.998;2023-09-07T02:04:32;19.70;93.20
26103;DHT22;69760;49.380;8.998;2023-09-07T02:06:57;19.70;93.20
26103;DHT22;69760;49.380;8.998;2023-09-07T02:09:23;19.70;93.60
26103;DHT22;69760;49.380;8.998;2023-09-07T02:11:48;19.70;93.70
26103;DHT22;69760;49.380;8.998;2023-09-07T02:14:15;19.60;93.80
26103;DHT22;69760;49.380;8.998;2023-09-07T02:16:40;19.60;93.90
26103;DHT22;69760;49.380;8.998;2023-09-07T02:19:07;19.50;93.90
26103;DHT22;69760;49.380;8.998;2023-09-07T02:21:32;19.40;94.00
26103;DHT22;69760;49.380;8.998;2023-09-07T02:23:58;19.40;94.00
26103;DHT22;69760;49.380;8.998;2023-09-07T02:26:24;19.40;93.90
26103;DHT22;69760;49.380;8.998;2023-09-07T02:28:50;19.40;94.00
26103;DHT22;69760;49.380;8.998;2023-09-07T02:31:15;19.30;94.20
26103;DHT22;69760;49.380;8.998;2023-09-07T02:33:41;19.30;94.40
26103;DHT22;69760;49.380;8.998;2023-09-07T02:36:06;19.20;94.50
26103;DHT22;69760;49.380;8.998;2023-09-07T02:38:32;19.30;94.60
26103;DHT22;69760;49.380;8.998;2023-09-07T02:40:58;19.20;94.70
26103;DHT22;69760;49.380;8.998;2023-09-07T02:43:23;19.20;94.50
26103;DHT22;69760;49.380;8.998;2023-09-07T02:45:49;19.20;94.50
26103;DHT22;69760;49.380;8.998;2023-09-07T02:48:15;19.30;94.80
26103;DHT22;69760;49.380;8.998;2023-09-07T02:50:41;19.30;94.60
26103;DHT22;69760;49.380;8.998;2023-09-07T02:53:08;19.30;94.90
26103;DHT22;69760;49.380;8.998;2023-09-07T02:55:33;19.30;94.90
26103;DHT22;69760;49.380;8.998;2023-09-07T02:58:03;19.30;94.80
26103;DHT22;69760;49.380;8.998;2023-09-07T03:00:28;19.20;94.80
26103;DHT22;69760;49.380;8.998;2023-09-07T03:02:54;19.30;95.20
26103;DHT22;69760;49.380;8.998;2023-09-07T03:05:19;19.30;95.00
26103;DHT22;69760;49.380;8.998;2023-09-07T03:07:46;19.30;95.10
26103;DHT22;69760;49.380;8.998;2023-09-07T03:10:12;19.30;95.20
26103;DHT22;69760;49.380;8.998;2023-09-07T03:12:38;19.30;95.30
26103;DHT22;69760;49.380;8.998;2023-09-07T03:15:04;19.30;95.40
26103;DHT22;69760;49.380;8.998;2023-09-07T03:17:30;19.20;95.50
26103;DHT22;69760;49.380;8.998;2023-09-07T03:19:56;19.10;95.60
26103;DHT22;69760;49.380;8.998;2023-09-07T03:22:25;19.10;95.90
26103;DHT22;69760;49.380;8.998;2023-09-07T03:24:51;19.10;96.00
26103;DHT22;69760;49.380;8.998;2023-09-07T03:27:17;19.00;96.00
26103;DHT22;69760;49.380;8.998;2023-09-07T03:29:44;19.00;96.30
26103;DHT22;69760;49.380;8.998;2023-09-07T03:32:10;18.90;96.50
26103;DHT22;69760;49.380;8.998;2023-09-07T03:34:36;18.80;96.40
26103;DHT22;69760;49.380;8.998;2023-09-07T03:37:01;18.80;96.70
26103;DHT22;69760;49.380;8.998;2023-09-07T03:39:27;18.80;96.80
26103;DHT22;69760;49.380;8.998;2023-09-07T03:41:53;18.80;96.90
26103;DHT22;69760;49.380;8.998;2023-09-07T03:44:19;18.70;97.00
26103;DHT22;69760;49.380;8.998;2023-09-07T03:46:44;18.70;96.80
26103;DHT22;69760;49.380;8.998;2023-09-07T03:49:10;18.80;96.90
26103;DHT22;69760;49.380;8.998;2023-09-07T03:51:35;18.80;97.10
26103;DHT22;69760;49.380;8.998;2023-09-07T03:54:01;18.80;97.00
26103;DHT22;69760;49.380;8.998;2023-09-07T03:56:27;18.80;97.20
26103;DHT22;69760;49.380;8.998;2023-09-07T03:58:52;18.80;97.20
26103;DHT22;69760;49.380;8.998;2023-09-07T04:01:18;18.70;97.20
26103;DHT22;69760;49.380;8.998;2023-09-07T04:03:43;18.70;97.20
26103;DHT22;69760;49.380;8.998;2023-09-07T04:06:09;18.70;97.20
26103;DHT22;69760;49.380;8.998;2023-09-07T04:08:35;18.70;97.50
26103;DHT22;69760;49.380;8.998;2023-09-07T04:11:04;18.70;97.50
26103;DHT22;69760;49.380;8.998;2023-09-07T04:13:30;18.70;97.70
26103;DHT22;69760;49.380;8.998;2023-09-07T04:15:56;18.70;97.70
26103;DHT22;69760;49.380;8.998;2023-09-07T04:18:21;18.70;97.90
26103;DHT22;69760;49.380;8.998;2023-09-07T04:20:47;18.60;97.90
26103;DHT22;69760;49.380;8.998;2023-09-07T04:23:13;18.70;98.40
26103;DHT22;69760;49.380;8.998;2023-09-07T04:25:38;18.60;98.10
26103;DHT22;69760;49.380;8.998;2023-09-07T04:28:05;18.60;98.10
26103;DHT22;69760;49.380;8.998;2023-09-07T04:30:31;18.60;98.30
26103;DHT22;69760;49.380;8.998;2023-09-07T04:32:56;18.60;98.60
26103;DHT22;69760;49.380;8.998;2023-09-07T04:35:30;18.50;98.50
26103;DHT22;69760;49.380;8.998;2023-09-07T04:37:56;18.50;98.50
26103;DHT22;69760;49.380;8.998;2023-09-07T04:40:22;18.50;98.80
26103;DHT22;69760;49.380;8.998;2023-09-07T04:42:48;18.50;98.90
26103;DHT22;69760;49.380;8.998;2023-09-07T04:45:13;18.50;98.70
26103;DHT22;69760;49.380;8.998;2023-09-07T04:47:39;18.50;98.80
26103;DHT22;69760;49.380;8.998;2023-09-07T04:50:05;18.60;98.90
26103;DHT22;69760;49.380;8.998;2023-09-07T04:52:31;18.60;98.90
26103;DHT22;69760;49.380;8.998;2023-09-07T04:54:57;18.50;98.90
26103;DHT22;69760;49.380;8.998;2023-09-07T04:57:22;18.50;99.20
26103;DHT22;69760;49.380;8.998;2023-09-07T04:59:48;18.50;99.10
26103;DHT22;69760;49.380;8.998;2023-09-07T05:02:13;18.50;99.20
26103;DHT22;69760;49.380;8.998;2023-09-07T05:04:39;18.50;99.30
26103;DHT22;69760;49.380;8.998;2023-09-07T05:07:05;18.60;99.20
26103;DHT22;69760;49.380;8.998;2023-09-07T05:09:30;18.60;99.10
26103;DHT22;69760;49.380;8.998;2023-09-07T05:11:56;18.60;99.10
26103;DHT22;69760;49.380;8.998;2023-09-07T05:14:23;18.60;99.20
26103;DHT22;69760;49.380;8.998;2023-09-07T05:16:50;18.60;99.50
26103;DHT22;69760;49.380;8.998;2023-09-07T05:19:15;18.70;99.40
26103;DHT22;69760;49.380;8.998;2023-09-07T05:21:41;18.70;99.70
26103;DHT22;69760;49.380;8.998;2023-09-07T05:24:06;18.70;99.50
26103;DHT22;69760;49.380;8.998;2023-09-07T05:26:32;18.60;99.80
26103;DHT22;69760;49.380;8.998;2023-09-07T05:28:57;18.70;99.80
26103;DHT22;69760;49.380;8.998;2023-09-07T05:31:23;18.70;99.90
26103;DHT22;69760;49.380;8.998;2023-09-07T05:33:49;18.70;99.90
26103;DHT22;69760;49.380;8.998;2023-09-07T05:36:14;18.70;99.90
26103;DHT22;69760;49.380;8.998;2023-09-07T05:38:40;18.70;99.90
26103;DHT22;69760;49.380;8.998;2023-09-07T05:41:06;18.80;99.90
26103;DHT22;69760;49.380;8.998;2023-09-07T05:43:32;18.80;99.90
26103;DHT22;69760;49.380;8.998;2023-09-07T05:45:58;18.80;99.90
26103;DHT22;69760;49.380;8.998;2023-09-07T05:48:23;18.80;99.90
26103;DHT22;69760;49.380;8.998;2023-09-07T05:50:49;18.80;99.90
26103;DHT22;69760;49.380;8.998;2023-09-07T05:53:14;18.90;99.90
26103;DHT22;69760;49.380;8.998;2023-09-07T05:55:40;18.90;99.90
26103;DHT22;69760;49.380;8.998;2023-09-07T05:58:07;18.90;99.90
26103;DHT22;69760;49.380;8.998;2023-09-07T06:00:34;18.90;99.90
26103;DHT22;69760;49.380;8.998;2023-09-07T06:03:00;18.90;99.90
26103;DHT22;69760;49.380;8.998;2023-09-07T06:05:27;19.00;99.90
26103;DHT22;69760;49.380;8.998;2023-09-07T06:07:52;19.10;99.90
26103;DHT22;69760;49.380;8.998;2023-09-07T06:10:18;19.10;99.90
26103;DHT22;69760;49.380;8.998;2023-09-07T06:12:44;19.10;99.90
26103;DHT22;69760;49.380;8.998;2023-09-07T06:15:10;19.10;99.90
26103;DHT22;69760;49.380;8.998;2023-09-07T06:17:36;19.10;99.90
26103;DHT22;69760;49.380;8.998;2023-09-07T06:20:02;19.20;99.90
26103;DHT22;69760;49.380;8.998;2023-09-07T06:22:28;19.30;99.90
26103;DHT22;69760;49.380;8.998;2023-09-07T06:24:53;19.30;99.80
26103;DHT22;69760;49.380;8.998;2023-09-07T06:27:19;19.30;99.70
26103;DHT22;69760;49.380;8.998;2023-09-07T06:29:44;19.40;99.90
26103;DHT22;69760;49.380;8.998;2023-09-07T06:32:10;19.40;99.90
26103;DHT22;69760;49.380;8.998;2023-09-07T06:34:35;19.50;99.90
26103;DHT22;69760;49.380;8.998;2023-09-07T06:37:01;19.50;99.90
26103;DHT22;69760;49.380;8.998;2023-09-07T06:39:27;19.60;99.90
26103;DHT22;69760;49.380;8.998;2023-09-07T06:41:52;19.60;99.60
26103;DHT22;69760;49.380;8.998;2023-09-07T06:44:18;19.70;99.90
26103;DHT22;69760;49.380;8.998;2023-09-07T06:46:44;19.80;99.90
26103;DHT22;69760;49.380;8.998;2023-09-07T06:49:09;19.80;99.60
26103;DHT22;69760;49.380;8.998;2023-09-07T06:51:35;19.90;99.40
26103;DHT22;69760;49.380;8.998;2023-09-07T06:54:00;19.90;99.20
26103;DHT22;69760;49.380;8.998;2023-09-07T06:56:26;19.90;99.20
26103;DHT22;69760;49.380;8.998;2023-09-07T06:58:52;20.00;98.90
26103;DHT22;69760;49.380;8.998;2023-09-07T07:01:17;20.10;98.70
26103;DHT22;69760;49.380;8.998;2023-09-07T07:03:43;20.10;99.00
26103;DHT22;69760;49.380;8.998;2023-09-07T07:06:09;20.20;98.60
26103;DHT22;69760;49.380;8.998;2023-09-07T07:08:34;20.30;98.20
26103;DHT22;69760;49.380;8.998;2023-09-07T07:11:00;20.40;98.20
26103;DHT22;69760;49.380;8.998;2023-09-07T07:13:25;20.50;97.60
26103;DHT22;69760;49.380;8.998;2023-09-07T07:15:51;20.60;98.10
26103;DHT22;69760;49.380;8.998;2023-09-07T07:18:17;20.60;97.80
26103;DHT22;69760;49.380;8.998;2023-09-07T07:20:43;20.70;97.30
26103;DHT22;69760;49.380;8.998;2023-09-07T07:23:10;20.80;97.20
26103;DHT22;69760;49.380;8.998;2023-09-07T07:25:36;20.90;97.00
26103;DHT22;69760;49.380;8.998;2023-09-07T07:28:03;20.90;97.40
26103;DHT22;69760;49.380;8.998;2023-09-07T07:30:36;21.00;96.70
26103;DHT22;69760;49.380;8.998;2023-09-07T07:33:03;21.10;96.70
26103;DHT22;69760;49.380;8.998;2023-09-07T07:35:30;21.20;96.50
26103;DHT22;69760;49.380;8.998;2023-09-07T07:37:55;21.30;96.30
26103;DHT22;69760;49.380;8.998;2023-09-07T07:40:21;21.40;95.70
26103;DHT22;69760;49.380;8.998;2023-09-07T07:42:47;21.50;95.90
26103;DHT22;69760;49.380;8.998;2023-09-07T07:45:14;21.60;95.50
26103;DHT22;69760;49.380;8.998;2023-09-07T07:47:42;21.70;94.50
26103;DHT22;69760;49.380;8.998;2023-09-07T07:50:08;21.70;94.70
26103;DHT22;69760;49.380;8.998;2023-09-07T07:52:34;21.80;94.80
26103;DHT22;69760;49.380;8.998;2023-09-07T07:55:00;21.90;94.40
26103;DHT22;69760;49.380;8.998;2023-09-07T07:57:25;22.00;94.40
26103;DHT22;69760;49.380;8.998;2023-09-07T07:59:51;22.10;94.10
26103;DHT22;69760;49.380;8.998;2023-09-07T08:02:17;22.20;93.90
26103;DHT22;69760;49.380;8.998;2023-09-07T08:04:42;22.30;93.80
26103;DHT22;69760;49.380;8.998;2023-09-07T08:07:08;22.30;93.30
26103;DHT22;69760;49.380;8.998;2023-09-07T08:09:34;22.40;93.70
26103;DHT22;69760;49.380;8.998;2023-09-07T08:11:59;22.40;93.10
26103;DHT22;69760;49.380;8.998;2023-09-07T08:14:29;22.50;93.60
26103;DHT22;69760;49.380;8.998;2023-09-07T08:16:55;22.60;93.40
26103;DHT22;69760;49.380;8.998;2023-09-07T08:19:20;22.70;93.80
26103;DHT22;69760;49.380;8.998;2023-09-07T08:21:46;22.70;92.90
26103;DHT22;69760;49.380;8.998;2023-09-07T08:24:12;22.80;93.10
26103;DHT22;69760;49.380;8.998;2023-09-07T08:26:38;22.80;93.60
26103;DHT22;69760;49.380;8.998;2023-09-07T08:29:04;22.80;93.30
26103;DHT22;69760;49.380;8.998;2023-09-07T08:31:37;22.90;93.30
26103;DHT22;69760;49.380;8.998;2023-09-07T08:34:06;23.10;92.50
26103;DHT22;69760;49.380;8.998;2023-09-07T08:36:32;23.10;92.50
26103;DHT22;69760;49.380;8.998;2023-09-07T08:39:00;23.10;93.00
26103;DHT22;69760;49.380;8.998;2023-09-07T08:41:40;23.20;92.50
26103;DHT22;69760;49.380;8.998;2023-09-07T08:44:18;23.30;92.70
26103;DHT22;69760;49.380;8.998;2023-09-07T08:46:45;23.40;92.60
26103;DHT22;69760;49.380;8.998;2023-09-07T08:49:11;23.50;91.90
26103;DHT22;69760;49.380;8.998;2023-09-07T08:51:38;23.50;92.10
26103;DHT22;69760;49.380;8.998;2023-09-07T08:54:04;23.60;92.10
26103;DHT22;69760;49.380;8.998;2023-09-07T08:56:30;23.70;91.60
26103;DHT22;69760;49.380;8.998;2023-09-07T08:58:57;23.70;91.70
26103;DHT22;69760;49.380;8.998;2023-09-07T09:01:23;23.80;91.70
26103;DHT22;69760;49.380;8.998;2023-09-07T09:03:49;23.90;91.70
26103;DHT22;69760;49.380;8.998;2023-09-07T09:06:19;24.00;91.40
26103;DHT22;69760;49.380;8.998;2023-09-07T09:08:46;24.10;91.20
26103;DHT22;69760;49.380;8.998;2023-09-07T09:11:14;24.00;91.10
26103;DHT22;69760;49.380;8.998;2023-09-07T09:13:41;24.10;91.00
26103;DHT22;69760;49.380;8.998;2023-09-07T09:16:07;24.20;91.40
26103;DHT22;69760;49.380;8.998;2023-09-07T09:18:32;24.30;90.60
26103;DHT22;69760;49.380;8.998;2023-09-07T09:20:58;24.40;90.80
26103;DHT22;69760;49.380;8.998;2023-09-07T09:23:35;24.50;90.20
26103;DHT22;69760;49.380;8.998;2023-09-07T09:26:02;24.50;90.40
26103;DHT22;69760;49.380;8.998;2023-09-07T09:28:30;24.60;90.10
26103;DHT22;69760;49.380;8.998;2023-09-07T09:30:57;24.70;90.50
26103;DHT22;69760;49.380;8.998;2023-09-07T09:33:23;24.70;90.20
26103;DHT22;69760;49.380;8.998;2023-09-07T09:35:49;24.80;90.00
26103;DHT22;69760;49.380;8.998;2023-09-07T09:38:16;24.90;90.10
26103;DHT22;69760;49.380;8.998;2023-09-07T09:40:42;25.00;89.60
26103;DHT22;69760;49.380;8.998;2023-09-07T09:43:08;25.10;89.50
26103;DHT22;69760;49.380;8.998;2023-09-07T09:45:34;25.10;87.80
26103;DHT22;69760;49.380;8.998;2023-09-07T09:48:01;25.20;89.20
26103;DHT22;69760;49.380;8.998;2023-09-07T09:50:28;25.30;87.30
26103;DHT22;69760;49.380;8.998;2023-09-07T09:52:54;25.50;87.00
26103;DHT22;69760;49.380;8.998;2023-09-07T09:55:20;25.60;85.50
26103;DHT22;69760;49.380;8.998;2023-09-07T09:57:47;25.70;85.50
26103;DHT22;69760;49.380;8.998;2023-09-07T10:00:13;25.70;85.00
26103;DHT22;69760;49.380;8.998;2023-09-07T10:02:51;25.70;85.50
26103;DHT22;69760;49.380;8.998;2023-09-07T10:05:20;25.80;84.30
26103;DHT22;69760;49.380;8.998;2023-09-07T10:07:48;25.90;84.10
26103;DHT22;69760;49.380;8.998;2023-09-07T10:10:17;25.90;83.40
26103;DHT22;69760;49.380;8.998;2023-09-07T10:12:44;26.00;82.50
26103;DHT22;69760;49.380;8.998;2023-09-07T10:15:28;26.10;83.20
26103;DHT22;69760;49.380;8.998;2023-09-07T10:20:55;26.30;82.10
26103;DHT22;69760;49.380;8.998;2023-09-07T10:23:23;26.40;82.30
26103;DHT22;69760;49.380;8.998;2023-09-07T10:25:59;26.50;81.10
26103;DHT22;69760;49.380;8.998;2023-09-07T10:28:25;26.70;81.50
26103;DHT22;69760;49.380;8.998;2023-09-07T10:30:58;26.70;79.40
26103;DHT22;69760;49.380;8.998;2023-09-07T10:33:24;26.70;78.80
26103;DHT22;69760;49.380;8.998;2023-09-07T10:35:50;26.90;79.90
26103;DHT22;69760;49.380;8.998;2023-09-07T10:38:15;26.90;78.90
26103;DHT22;69760;49.380;8.998;2023-09-07T10:40:44;26.90;79.30
26103;DHT22;69760;49.380;8.998;2023-09-07T10:43:11;26.90;79.40
26103;DHT22;69760;49.380;8.998;2023-09-07T10:45:36;27.10;79.80
26103;DHT22;69760;49.380;8.998;2023-09-07T10:48:02;27.20;79.20
26103;DHT22;69760;49.380;8.998;2023-09-07T10:50:42;27.40;80.00
26103;DHT22;69760;49.380;8.998;2023-09-07T10:53:08;27.30;78.40
26103;DHT22;69760;49.380;8.998;2023-09-07T10:55:37;27.30;76.30
26103;DHT22;69760;49.380;8.998;2023-09-07T10:58:07;27.30;78.60
26103;DHT22;69760;49.380;8.998;2023-09-07T11:00:34;27.30;77.50
26103;DHT22;69760;49.380;8.998;2023-09-07T11:03:07;27.30;76.90
26103;DHT22;69760;49.380;8.998;2023-09-07T11:05:33;27.30;75.70
26103;DHT22;69760;49.380;8.998;2023-09-07T11:08:03;27.40;75.50
26103;DHT22;69760;49.380;8.998;2023-09-07T11:10:31;27.50;76.50
26103;DHT22;69760;49.380;8.998;2023-09-07T11:12:57;27.70;75.60
26103;DHT22;69760;49.380;8.998;2023-09-07T11:15:22;27.90;74.50
26103;DHT22;69760;49.380;8.998;2023-09-07T11:17:48;28.00;74.30
26103;DHT22;69760;49.380;8.998;2023-09-07T11:20:15;28.00;74.90
26103;DHT22;69760;49.380;8.998;2023-09-07T11:22:41;28.10;74.60
26103;DHT22;69760;49.380;8.998;2023-09-07T11:25:07;28.10;72.60
26103;DHT22;69760;49.380;8.998;2023-09-07T11:27:33;28.20;74.60
26103;DHT22;69760;49.380;8.998;2023-09-07T11:30:01;28.20;71.80
26103;DHT22;69760;49.380;8.998;2023-09-07T11:32:36;28.20;72.00
26103;DHT22;69760;49.380;8.998;2023-09-07T11:35:02;28.30;73.80
26103;DHT22;69760;49.380;8.998;2023-09-07T11:37:28;28.40;73.70
26103;DHT22;69760;49.380;8.998;2023-09-07T11:39:53;28.50;73.70
26103;DHT22;69760;49.380;8.998;2023-09-07T11:42:19;28.60;72.20
26103;DHT22;69760;49.380;8.998;2023-09-07T11:44:44;28.60;71.70
26103;DHT22;69760;49.380;8.998;2023-09-07T11:47:10;28.80;71.20
26103;DHT22;69760;49.380;8.998;2023-09-07T11:49:35;28.90;69.40
26103;DHT22;69760;49.380;8.998;2023-09-07T11:52:01;29.00;68.50
26103;DHT22;69760;49.380;8.998;2023-09-07T11:54:27;29.10;69.30
26103;DHT22;69760;49.380;8.998;2023-09-07T11:56:52;29.10;68.30
26103;DHT22;69760;49.380;8.998;2023-09-07T11:59:18;29.20;67.20
26103;DHT22;69760;49.380;8.998;2023-09-07T12:01:44;29.20;66.30
26103;DHT22;69760;49.380;8.998;2023-09-07T12:04:09;29.20;68.00
26103;DHT22;69760;49.380;8.998;2023-09-07T12:06:35;29.30;66.30
26103;DHT22;69760;49.380;8.998;2023-09-07T12:09:05;29.40;67.10
26103;DHT22;69760;49.380;8.998;2023-09-07T12:11:32;29.50;66.50
26103;DHT22;69760;49.380;8.998;2023-09-07T12:13:58;29.60;66.90
26103;DHT22;69760;49.380;8.998;2023-09-07T12:16:25;29.70;64.70
26103;DHT22;69760;49.380;8.998;2023-09-07T12:18:51;29.80;64.10
26103;DHT22;69760;49.380;8.998;2023-09-07T12:21:17;29.90;64.60
26103;DHT22;69760;49.380;8.998;2023-09-07T12:23:42;30.00;63.40
26103;DHT22;69760;49.380;8.998;2023-09-07T12:26:08;30.00;60.90
26103;DHT22;69760;49.380;8.998;2023-09-07T12:28:34;30.00;65.10
26103;DHT22;69760;49.380;8.998;2023-09-07T12:31:00;30.10;62.50
26103;DHT22;69760;49.380;8.998;2023-09-07T12:33:25;30.20;63.60
26103;DHT22;69760;49.380;8.998;2023-09-07T12:35:51;30.30;62.00
26103;DHT22;69760;49.380;8.998;2023-09-07T12:38:17;30.40;62.30
26103;DHT22;69760;49.380;8.998;2023-09-07T12:40:47;30.50;62.10
26103;DHT22;69760;49.380;8.998;2023-09-07T12:43:14;30.60;62.00
26103;DHT22;69760;49.380;8.998;2023-09-07T12:45:39;30.70;62.30
26103;DHT22;69760;49.380;8.998;2023-09-07T12:48:06;30.90;62.60
26103;DHT22;69760;49.380;8.998;2023-09-07T12:50:31;30.90;59.80
26103;DHT22;69760;49.380;8.998;2023-09-07T12:52:57;31.00;59.40
26103;DHT22;69760;49.380;8.998;2023-09-07T12:55:23;31.20;61.50
26103;DHT22;69760;49.380;8.998;2023-09-07T12:57:50;31.30;59.30
26103;DHT22;69760;49.380;8.998;2023-09-07T13:00:15;31.30;60.10
26103;DHT22;69760;49.380;8.998;2023-09-07T13:02:41;31.40;58.00
26103;DHT22;69760;49.380;8.998;2023-09-07T13:05:07;31.40;57.20
26103;DHT22;69760;49.380;8.998;2023-09-07T13:07:33;31.40;57.30
26103;DHT22;69760;49.380;8.998;2023-09-07T13:10:01;31.40;58.20
26103;DHT22;69760;49.380;8.998;2023-09-07T13:12:30;31.60;58.10
26103;DHT22;69760;49.380;8.998;2023-09-07T13:14:56;31.70;57.40
26103;DHT22;69760;49.380;8.998;2023-09-07T13:17:22;31.70;58.40
26103;DHT22;69760;49.380;8.998;2023-09-07T13:19:47;31.90;57.50
26103;DHT22;69760;49.380;8.998;2023-09-07T13:22:13;32.00;56.50
26103;DHT22;69760;49.380;8.998;2023-09-07T13:24:39;32.10;56.40
26103;DHT22;69760;49.380;8.998;2023-09-07T13:27:05;32.20;55.40
26103;DHT22;69760;49.380;8.998;2023-09-07T13:29:31;32.20;56.30
26103;DHT22;69760;49.380;8.998;2023-09-07T13:31:57;32.20;54.80
26103;DHT22;69760;49.380;8.998;2023-09-07T13:34:24;32.20;55.40
26103;DHT22;69760;49.380;8.998;2023-09-07T13:36:50;32.30;56.70
26103;DHT22;69760;49.380;8.998;2023-09-07T13:39:15;32.40;56.60
26103;DHT22;69760;49.380;8.998;2023-09-07T13:41:41;32.50;54.70
26103;DHT22;69760;49.380;8.998;2023-09-07T13:44:06;32.50;55.50
26103;DHT22;69760;49.380;8.998;2023-09-07T13:46:33;32.60;55.00
26103;DHT22;69760;49.380;8.998;2023-09-07T13:48:59;32.70;54.40
26103;DHT22;69760;49.380;8.998;2023-09-07T13:51:25;32.80;52.40
26103;DHT22;69760;49.380;8.998;2023-09-07T13:53:51;32.90;53.60
26103;DHT22;69760;49.380;8.998;2023-09-07T13:56:17;33.00;52.20
26103;DHT22;69760;49.380;8.998;2023-09-07T13:58:43;33.00;52.70
26103;DHT22;69760;49.380;8.998;2023-09-07T14:01:09;33.10;52.50
26103;DHT22;69760;49.380;8.998;2023-09-07T14:03:34;33.10;53.20
26103;DHT22;69760;49.380;8.998;2023-09-07T14:06:00;33.10;52.90
26103;DHT22;69760;49.380;8.998;2023-09-07T14:08:26;33.20;51.90
26103;DHT22;69760;49.380;8.998;2023-09-07T14:10:51;33.20;51.30
26103;DHT22;69760;49.380;8.998;2023-09-07T14:13:18;33.10;51.80
26103;DHT22;69760;49.380;8.998;2023-09-07T14:15:44;33.10;54.20
26103;DHT22;69760;49.380;8.998;2023-09-07T14:18:10;33.10;53.60
26103;DHT22;69760;49.380;8.998;2023-09-07T14:20:36;33.20;53.00
26103;DHT22;69760;49.380;8.998;2023-09-07T14:23:01;33.30;52.90
26103;DHT22;69760;49.380;8.998;2023-09-07T14:25:27;33.40;53.00
26103;DHT22;69760;49.380;8.998;2023-09-07T14:27:53;33.50;51.70
26103;DHT22;69760;49.380;8.998;2023-09-07T14:30:18;33.50;52.60
26103;DHT22;69760;49.380;8.998;2023-09-07T14:32:44;33.60;52.30
26103;DHT22;69760;49.380;8.998;2023-09-07T14:35:12;33.70;51.90
26103;DHT22;69760;49.380;8.998;2023-09-07T14:37:38;33.60;51.90
26103;DHT22;69760;49.380;8.998;2023-09-07T14:40:04;33.70;51.80
26103;DHT22;69760;49.380;8.998;2023-09-07T14:42:29;33.70;52.50
26103;DHT22;69760;49.380;8.998;2023-09-07T14:44:55;33.70;51.90
26103;DHT22;69760;49.380;8.998;2023-09-07T14:47:23;33.80;51.40
26103;DHT22;69760;49.380;8.998;2023-09-07T14:49:51;33.80;50.50
26103;DHT22;69760;49.380;8.998;2023-09-07T14:52:18;33.80;51.20
26103;DHT22;69760;49.380;8.998;2023-09-07T14:54:43;33.90;51.80
26103;DHT22;69760;49.380;8.998;2023-09-07T14:57:09;33.90;50.20
26103;DHT22;69760;49.380;8.998;2023-09-07T14:59:35;34.00;50.00
26103;DHT22;69760;49.380;8.998;2023-09-07T15:02:05;34.00;49.90
26103;DHT22;69760;49.380;8.998;2023-09-07T15:04:31;34.10;50.50
26103;DHT22;69760;49.380;8.998;2023-09-07T15:06:57;34.00;50.30
26103;DHT22;69760;49.380;8.998;2023-09-07T15:09:22;34.00;51.10
26103;DHT22;69760;49.380;8.998;2023-09-07T15:11:48;34.10;51.10
26103;DHT22;69760;49.380;8.998;2023-09-07T15:14:13;34.10;50.60
26103;DHT22;69760;49.380;8.998;2023-09-07T15:16:39;34.20;50.30
26103;DHT22;69760;49.380;8.998;2023-09-07T15:19:05;34.30;50.50
26103;DHT22;69760;49.380;8.998;2023-09-07T15:21:30;34.30;51.20
26103;DHT22;69760;49.380;8.998;2023-09-07T15:23:56;34.40;50.40
26103;DHT22;69760;49.380;8.998;2023-09-07T15:26:23;34.30;49.00
26103;DHT22;69760;49.380;8.998;2023-09-07T15:28:49;34.30;49.40
26103;DHT22;69760;49.380;8.998;2023-09-07T15:31:14;34.30;49.00
26103;DHT22;69760;49.380;8.998;2023-09-07T15:33:40;34.20;48.30